sensor_id;sensor_type;location;lat;lon;timestamp;P1;durP1;ratioP1;P2;durP2;ratioP2
74401;SDS011;62837;51.082;13.744;2023-02-15T00:02:14;27.70;;;13.20;;
74401;SDS011;62837;51.082;13.744;2023-02-15T00:04:44;30.50;;;13.50;;
74401;SDS011;62837;51.082;13.744;2023-02-15T00:07:16;28.50;;;13.60;;
74401;SDS011;62837;51.082;13.744;2023-02-15T00:09:47;30.50;;;15.00;;
74401;SDS011;62837;51.082;13.744;2023-02-15T00:12:18;28.00;;;12.80;;
74401;SDS011;62837;51.082;13.744;2023-02-15T00:14:49;27.40;;;13.50;;
74401;SDS011;62837;51.082;13.744;2023-02-15T00:17:20;25.30;;;12.50;;
74401;SDS011;62837;51.082;13.744;2023-02-15T00:19:50;27.80;;;13.70;;
74401;SDS011;62837;51.082;13.744;2023-02-15T00:22:21;29.50;;;12.90;;
74401;SDS011;62837;51.082;13.744;2023-02-15T00:24:52;27.90;;;13.80;;
74401;SDS011;62837;51.082;13.744;2023-02-15T00:27:23;27.20;;;12.70;;
74401;SDS011;62837;51.082;13.744;2023-02-15T00:29:54;26.90;;;13.50;;
74401;SDS011;62837;51.082;13.744;2023-02-15T00:32:24;27.00;;;12.70;;
74401;SDS011;62837;51.082;13.744;2023-02-15T00:34:55;23.80;;;11.80;;
74401;SDS011;62837;51.082;13.744;2023-02-15T00:37:26;28.50;;;13.50;;
74401;SDS011;62837;51.082;13.744;2023-02-15T00:39:57;29.60;;;13.70;;
74401;SDS011;62837;51.082;13.744;2023-02-15T00:42:30;31.20;;;14.00;;
74401;SDS011;62837;51.082;13.744;2023-02-15T00:45:01;27.30;;;14.00;;
74401;SDS011;62837;51.082;13.744;2023-02-15T00:47:32;24.90;;;12.00;;
74401;SDS011;62837;51.082;13.744;2023-02-15T00:50:04;29.00;;;11.30;;
74401;SDS011;62837;51.082;13.744;2023-02-15T00:52:36;27.60;;;12.60;;
74401;SDS011;62837;51.082;13.744;2023-02-15T00:55:08;27.20;;;13.30;;
74401;SDS011;62837;51.082;13.744;2023-02-15T00:57:38;26.70;;;12.00;;
74401;SDS011;62837;51.082;13.744;2023-02-15T01:00:10;24.40;;;12.50;;
74401;SDS011;62837;51.082;13.744;2023-02-15T01:02:42;27.00;;;13.30;;
74401;SDS011;62837;51.082;13.744;2023-02-15T01:05:13;27.50;;;12.30;;
74401;SDS011;62837;51.082;13.744;2023-02-15T01:07:44;28.80;;;12.90;;
74401;SDS011;62837;51.082;13.744;2023-02-15T01:10:15;30.70;;;13.70;;
74401;SDS011;62837;51.082;13.744;2023-02-15T01:12:46;27.70;;;13.10;;
74401;SDS011;62837;51.082;13.744;2023-02-15T01:15:20;28.60;;;12.60;;
74401;SDS011;62837;51.082;13.744;2023-02-15T01:17:51;28.80;;;12.90;;
74401;SDS011;62837;51.082;13.744;2023-02-15T01:20:23;26.60;;;11.80;;
74401;SDS011;62837;51.082;13.744;2023-02-15T01:22:56;25.30;;;12.90;;
74401;SDS011;62837;51.082;13.744;2023-02-15T01:25:27;25.80;;;12.40;;
74401;SDS011;62837;51.082;13.744;2023-02-15T01:27:58;30.10;;;12.80;;
74401;SDS011;62837;51.082;13.744;2023-02-15T01:30:29;23.90;;;11.30;;
74401;SDS011;62837;51.082;13.744;2023-02-15T01:33:00;23.90;;;11.50;;
74401;SDS011;62837;51.082;13.744;2023-02-15T01:35:31;29.30;;;13.20;;
74401;SDS011;62837;51.082;13.744;2023-02-15T01:38:02;29.20;;;13.50;;
74401;SDS011;62837;51.082;13.744;2023-02-15T01:40:33;26.30;;;12.40;;
74401;SDS011;62837;51.082;13.744;2023-02-15T01:43:09;29.40;;;13.30;;
74401;SDS011;62837;51.082;13.744;2023-02-15T01:45:40;25.70;;;12.50;;
74401;SDS011;62837;51.082;13.744;2023-02-15T01:48:17;28.50;;;12.70;;
74401;SDS011;62837;51.082;13.744;2023-02-15T01:50:52;25.50;;;12.40;;
74401;SDS011;62837;51.082;13.744;2023-02-15T01:53:26;28.70;;;12.60;;
74401;SDS011;62837;51.082;13.744;2023-02-15T01:56:02;29.50;;;13.30;;
74401;SDS011;62837;51.082;13.744;2023-02-15T01:58:37;27.90;;;12.30;;
74401;SDS011;62837;51.082;13.744;2023-02-15T02:01:09;25.90;;;12.30;;
74401;SDS011;62837;51.082;13.744;2023-02-15T02:03:41;27.40;;;12.80;;
74401;SDS011;62837;51.082;13.744;2023-02-15T02:06:18;28.40;;;12.30;;
74401;SDS011;62837;51.082;13.744;2023-02-15T02:08:53;30.60;;;12.50;;
74401;SDS011;62837;51.082;13.744;2023-02-15T02:11:25;26.20;;;11.10;;
74401;SDS011;62837;51.082;13.744;2023-02-15T02:13:55;29.30;;;13.00;;
74401;SDS011;62837;51.082;13.744;2023-02-15T02:16:27;28.70;;;13.50;;
74401;SDS011;62837;51.082;13.744;2023-02-15T02:19:24;23.30;;;10.30;;
74401;SDS011;62837;51.082;13.744;2023-02-15T02:22:25;30.80;;;12.00;;
74401;SDS011;62837;51.082;13.744;2023-02-15T02:28:31;25.80;;;11.40;;
74401;SDS011;62837;51.082;13.744;2023-02-15T02:31:28;27.00;;;11.70;;
74401;SDS011;62837;51.082;13.744;2023-02-15T02:34:07;24.40;;;10.70;;
74401;SDS011;62837;51.082;13.744;2023-02-15T02:36:47;25.50;;;10.80;;
74401;SDS011;62837;51.082;13.744;2023-02-15T02:39:28;22.00;;;10.30;;
74401;SDS011;62837;51.082;13.744;2023-02-15T02:42:08;22.50;;;9.60;;
74401;SDS011;62837;51.082;13.744;2023-02-15T02:44:46;24.30;;;10.10;;
74401;SDS011;62837;51.082;13.744;2023-02-15T02:47:22;25.00;;;10.80;;
74401;SDS011;62837;51.082;13.744;2023-02-15T02:49:59;22.20;;;10.90;;
74401;SDS011;62837;51.082;13.744;2023-02-15T02:52:37;21.50;;;9.90;;
74401;SDS011;62837;51.082;13.744;2023-02-15T02:55:11;25.00;;;10.30;;
74401;SDS011;62837;51.082;13.744;2023-02-15T02:57:48;22.10;;;10.60;;
74401;SDS011;62837;51.082;13.744;2023-02-15T03:00:23;25.50;;;11.20;;
74401;SDS011;62837;51.082;13.744;2023-02-15T03:02:59;25.70;;;10.60;;
74401;SDS011;62837;51.082;13.744;2023-02-15T03:05:35;23.10;;;9.00;;
74401;SDS011;62837;51.082;13.744;2023-02-15T03:08:10;25.10;;;10.20;;
74401;SDS011;62837;51.082;13.744;2023-02-15T03:10:50;24.50;;;9.00;;
74401;SDS011;62837;51.082;13.744;2023-02-15T03:13:24;23.80;;;10.20;;
74401;SDS011;62837;51.082;13.744;2023-02-15T03:15:56;30.90;;;9.40;;
74401;SDS011;62837;51.082;13.744;2023-02-15T03:18:47;34.40;;;9.30;;
74401;SDS011;62837;51.082;13.744;2023-02-15T03:21:28;30.00;;;9.60;;
74401;SDS011;62837;51.082;13.744;2023-02-15T03:24:07;29.50;;;10.70;;
74401;SDS011;62837;51.082;13.744;2023-02-15T03:26:45;25.90;;;9.50;;
74401;SDS011;62837;51.082;13.744;2023-02-15T03:29:20;30.90;;;10.20;;
74401;SDS011;62837;51.082;13.744;2023-02-15T03:31:54;34.10;;;12.00;;
74401;SDS011;62837;51.082;13.744;2023-02-15T03:34:29;26.80;;;11.00;;
74401;SDS011;62837;51.082;13.744;2023-02-15T03:37:03;30.10;;;12.20;;
74401;SDS011;62837;51.082;13.744;2023-02-15T03:39:41;29.90;;;11.40;;
74401;SDS011;62837;51.082;13.744;2023-02-15T03:42:18;26.30;;;9.20;;
74401;SDS011;62837;51.082;13.744;2023-02-15T03:44:56;17.00;;;7.50;;
74401;SDS011;62837;51.082;13.744;2023-02-15T03:47:31;26.80;;;10.90;;
74401;SDS011;62837;51.082;13.744;2023-02-15T03:50:05;22.10;;;8.60;;
74401;SDS011;62837;51.082;13.744;2023-02-15T03:52:55;23.50;;;9.60;;
74401;SDS011;62837;51.082;13.744;2023-02-15T03:55:28;26.30;;;10.00;;
74401;SDS011;62837;51.082;13.744;2023-02-15T03:57:59;24.40;;;9.70;;
74401;SDS011;62837;51.082;13.744;2023-02-15T04:00:49;23.50;;;9.10;;
74401;SDS011;62837;51.082;13.744;2023-02-15T04:03:43;21.80;;;8.40;;
74401;SDS011;62837;51.082;13.744;2023-02-15T04:06:20;29.80;;;11.90;;
74401;SDS011;62837;51.082;13.744;2023-02-15T04:08:51;25.70;;;11.30;;
74401;SDS011;62837;51.082;13.744;2023-02-15T04:11:39;25.10;;;9.50;;
74401;SDS011;62837;51.082;13.744;2023-02-15T04:14:09;25.20;;;10.80;;
74401;SDS011;62837;51.082;13.744;2023-02-15T04:16:54;26.80;;;10.80;;
74401;SDS011;62837;51.082;13.744;2023-02-15T04:19:25;28.70;;;10.80;;
74401;SDS011;62837;51.082;13.744;2023-02-15T04:22:13;22.80;;;9.40;;
74401;SDS011;62837;51.082;13.744;2023-02-15T04:25:01;29.40;;;11.40;;
74401;SDS011;62837;51.082;13.744;2023-02-15T04:27:40;28.10;;;11.40;;
74401;SDS011;62837;51.082;13.744;2023-02-15T04:30:12;26.70;;;11.70;;
74401;SDS011;62837;51.082;13.744;2023-02-15T04:32:44;26.70;;;11.20;;
74401;SDS011;62837;51.082;13.744;2023-02-15T04:35:16;21.30;;;8.00;;
74401;SDS011;62837;51.082;13.744;2023-02-15T04:37:47;28.50;;;12.20;;
74401;SDS011;62837;51.082;13.744;2023-02-15T04:40:18;26.10;;;10.80;;
74401;SDS011;62837;51.082;13.744;2023-02-15T04:42:49;24.90;;;10.80;;
74401;SDS011;62837;51.082;13.744;2023-02-15T04:45:19;28.30;;;11.70;;
74401;SDS011;62837;51.082;13.744;2023-02-15T04:47:50;25.50;;;9.30;;
74401;SDS011;62837;51.082;13.744;2023-02-15T04:50:21;28.70;;;10.90;;
74401;SDS011;62837;51.082;13.744;2023-02-15T04:52:52;26.50;;;10.30;;
74401;SDS011;62837;51.082;13.744;2023-02-15T04:55:22;27.40;;;11.20;;
74401;SDS011;62837;51.082;13.744;2023-02-15T04:57:54;24.10;;;9.00;;
74401;SDS011;62837;51.082;13.744;2023-02-15T05:00:25;23.90;;;9.60;;
74401;SDS011;62837;51.082;13.744;2023-02-15T05:02:56;28.70;;;10.40;;
74401;SDS011;62837;51.082;13.744;2023-02-15T05:05:27;33.70;;;13.50;;
74401;SDS011;62837;51.082;13.744;2023-02-15T05:07:57;27.00;;;9.80;;
74401;SDS011;62837;51.082;13.744;2023-02-15T05:10:28;33.60;;;11.80;;
74401;SDS011;62837;51.082;13.744;2023-02-15T05:12:59;30.20;;;11.90;;
74401;SDS011;62837;51.082;13.744;2023-02-15T05:15:29;32.20;;;11.70;;
74401;SDS011;62837;51.082;13.744;2023-02-15T05:18:00;37.80;;;14.90;;
74401;SDS011;62837;51.082;13.744;2023-02-15T05:20:31;31.40;;;12.10;;
74401;SDS011;62837;51.082;13.744;2023-02-15T05:23:01;33.10;;;11.00;;
74401;SDS011;62837;51.082;13.744;2023-02-15T05:25:32;29.30;;;11.80;;
74401;SDS011;62837;51.082;13.744;2023-02-15T05:28:21;31.40;;;10.90;;
74401;SDS011;62837;51.082;13.744;2023-02-15T05:31:00;32.30;;;11.80;;
74401;SDS011;62837;51.082;13.744;2023-02-15T05:33:34;32.90;;;12.80;;
74401;SDS011;62837;51.082;13.744;2023-02-15T05:36:06;30.60;;;12.10;;
74401;SDS011;62837;51.082;13.744;2023-02-15T05:38:37;27.30;;;9.50;;
74401;SDS011;62837;51.082;13.744;2023-02-15T05:41:09;30.70;;;12.10;;
74401;SDS011;62837;51.082;13.744;2023-02-15T05:43:40;31.10;;;11.70;;
74401;SDS011;62837;51.082;13.744;2023-02-15T05:46:11;21.00;;;8.70;;
74401;SDS011;62837;51.082;13.744;2023-02-15T05:48:42;29.70;;;10.30;;
74401;SDS011;62837;51.082;13.744;2023-02-15T05:51:13;27.90;;;10.20;;
74401;SDS011;62837;51.082;13.744;2023-02-15T05:53:44;23.90;;;9.40;;
74401;SDS011;62837;51.082;13.744;2023-02-15T05:56:15;27.70;;;11.10;;
74401;SDS011;62837;51.082;13.744;2023-02-15T05:58:46;21.90;;;8.40;;
74401;SDS011;62837;51.082;13.744;2023-02-15T06:01:17;28.60;;;10.40;;
74401;SDS011;62837;51.082;13.744;2023-02-15T06:03:50;31.70;;;11.80;;
74401;SDS011;62837;51.082;13.744;2023-02-15T06:06:22;30.20;;;10.30;;
74401;SDS011;62837;51.082;13.744;2023-02-15T06:08:52;24.80;;;10.40;;
74401;SDS011;62837;51.082;13.744;2023-02-15T06:11:23;29.30;;;11.70;;
74401;SDS011;62837;51.082;13.744;2023-02-15T06:13:54;24.50;;;8.50;;
74401;SDS011;62837;51.082;13.744;2023-02-15T06:16:24;18.00;;;6.00;;
74401;SDS011;62837;51.082;13.744;2023-02-15T06:18:55;21.30;;;7.80;;
74401;SDS011;62837;51.082;13.744;2023-02-15T06:21:26;21.00;;;8.90;;
74401;SDS011;62837;51.082;13.744;2023-02-15T06:23:58;20.90;;;8.30;;
74401;SDS011;62837;51.082;13.744;2023-02-15T06:26:29;18.30;;;7.70;;
74401;SDS011;62837;51.082;13.744;2023-02-15T06:29:00;28.00;;;9.70;;
74401;SDS011;62837;51.082;13.744;2023-02-15T06:31:31;22.50;;;7.70;;
74401;SDS011;62837;51.082;13.744;2023-02-15T06:34:02;24.30;;;8.60;;
74401;SDS011;62837;51.082;13.744;2023-02-15T06:36:33;23.80;;;7.50;;
74401;SDS011;62837;51.082;13.744;2023-02-15T06:39:04;23.60;;;9.10;;
74401;SDS011;62837;51.082;13.744;2023-02-15T06:41:35;25.60;;;11.20;;
74401;SDS011;62837;51.082;13.744;2023-02-15T06:44:06;33.70;;;12.00;;
74401;SDS011;62837;51.082;13.744;2023-02-15T06:46:37;19.10;;;8.00;;
74401;SDS011;62837;51.082;13.744;2023-02-15T06:49:08;19.90;;;8.00;;
74401;SDS011;62837;51.082;13.744;2023-02-15T06:51:38;21.60;;;7.30;;
74401;SDS011;62837;51.082;13.744;2023-02-15T06:54:09;23.90;;;8.70;;
74401;SDS011;62837;51.082;13.744;2023-02-15T06:56:40;19.60;;;8.30;;
74401;SDS011;62837;51.082;13.744;2023-02-15T06:59:11;19.70;;;8.10;;
74401;SDS011;62837;51.082;13.744;2023-02-15T07:01:42;22.20;;;7.90;;
74401;SDS011;62837;51.082;13.744;2023-02-15T07:04:13;18.70;;;7.30;;
74401;SDS011;62837;51.082;13.744;2023-02-15T07:06:44;21.10;;;9.00;;
74401;SDS011;62837;51.082;13.744;2023-02-15T07:09:14;21.00;;;9.20;;
74401;SDS011;62837;51.082;13.744;2023-02-15T07:11:45;18.90;;;8.30;;
74401;SDS011;62837;51.082;13.744;2023-02-15T07:14:33;17.60;;;8.50;;
74401;SDS011;62837;51.082;13.744;2023-02-15T07:17:04;21.50;;;8.60;;
74401;SDS011;62837;51.082;13.744;2023-02-15T07:20:19;17.00;;;7.40;;
74401;SDS011;62837;51.082;13.744;2023-02-15T07:22:51;18.00;;;8.70;;
74401;SDS011;62837;51.082;13.744;2023-02-15T07:25:22;17.80;;;7.90;;
74401;SDS011;62837;51.082;13.744;2023-02-15T07:27:56;17.50;;;7.80;;
74401;SDS011;62837;51.082;13.744;2023-02-15T07:30:28;17.20;;;8.50;;
74401;SDS011;62837;51.082;13.744;2023-02-15T07:32:59;17.20;;;7.70;;
74401;SDS011;62837;51.082;13.744;2023-02-15T07:35:48;16.70;;;6.70;;
74401;SDS011;62837;51.082;13.744;2023-02-15T07:38:20;16.60;;;7.30;;
74401;SDS011;62837;51.082;13.744;2023-02-15T07:40:56;14.60;;;8.00;;
74401;SDS011;62837;51.082;13.744;2023-02-15T07:43:28;12.80;;;6.30;;
74401;SDS011;62837;51.082;13.744;2023-02-15T07:48:32;13.60;;;6.30;;
74401;SDS011;62837;51.082;13.744;2023-02-15T07:51:03;11.40;;;5.70;;
74401;SDS011;62837;51.082;13.744;2023-02-15T07:53:36;14.20;;;7.00;;
74401;SDS011;62837;51.082;13.744;2023-02-15T07:56:09;14.90;;;6.00;;
74401;SDS011;62837;51.082;13.744;2023-02-15T07:58:41;14.00;;;6.50;;
74401;SDS011;62837;51.082;13.744;2023-02-15T08:01:23;12.10;;;5.30;;
74401;SDS011;62837;51.082;13.744;2023-02-15T08:03:55;12.50;;;5.70;;
74401;SDS011;62837;51.082;13.744;2023-02-15T08:06:27;11.40;;;6.00;;
74401;SDS011;62837;51.082;13.744;2023-02-15T08:09:00;10.60;;;5.60;;
74401;SDS011;62837;51.082;13.744;2023-02-15T08:11:32;11.40;;;5.70;;
74401;SDS011;62837;51.082;13.744;2023-02-15T08:14:08;13.50;;;6.40;;
74401;SDS011;62837;51.082;13.744;2023-02-15T08:16:41;18.30;;;6.10;;
74401;SDS011;62837;51.082;13.744;2023-02-15T08:19:14;13.10;;;6.50;;
74401;SDS011;62837;51.082;13.744;2023-02-15T08:21:47;11.40;;;6.00;;
74401;SDS011;62837;51.082;13.744;2023-02-15T08:26:50;15.00;;;6.00;;
74401;SDS011;62837;51.082;13.744;2023-02-15T08:29:21;9.00;;;4.90;;
74401;SDS011;62837;51.082;13.744;2023-02-15T08:31:55;11.90;;;6.10;;
74401;SDS011;62837;51.082;13.744;2023-02-15T08:34:30;9.40;;;4.90;;
74401;SDS011;62837;51.082;13.744;2023-02-15T08:37:02;12.30;;;5.60;;
74401;SDS011;62837;51.082;13.744;2023-02-15T08:39:34;12.10;;;5.90;;
74401;SDS011;62837;51.082;13.744;2023-02-15T08:42:05;10.10;;;4.60;;
74401;SDS011;62837;51.082;13.744;2023-02-15T08:44:35;7.30;;;3.70;;
74401;SDS011;62837;51.082;13.744;2023-02-15T08:47:06;8.50;;;4.50;;
74401;SDS011;62837;51.082;13.744;2023-02-15T08:49:37;10.60;;;5.00;;
74401;SDS011;62837;51.082;13.744;2023-02-15T08:52:07;8.70;;;4.10;;
74401;SDS011;62837;51.082;13.744;2023-02-15T08:54:38;10.30;;;5.20;;
74401;SDS011;62837;51.082;13.744;2023-02-15T08:57:09;10.90;;;5.10;;
74401;SDS011;62837;51.082;13.744;2023-02-15T08:59:40;9.90;;;5.70;;
74401;SDS011;62837;51.082;13.744;2023-02-15T09:02:11;9.10;;;5.20;;
74401;SDS011;62837;51.082;13.744;2023-02-15T09:04:41;7.70;;;4.40;;
74401;SDS011;62837;51.082;13.744;2023-02-15T09:07:12;7.50;;;4.10;;
74401;SDS011;62837;51.082;13.744;2023-02-15T09:09:45;9.50;;;5.20;;
74401;SDS011;62837;51.082;13.744;2023-02-15T09:12:16;9.70;;;5.10;;
74401;SDS011;62837;51.082;13.744;2023-02-15T09:14:46;7.30;;;3.60;;
74401;SDS011;62837;51.082;13.744;2023-02-15T09:17:17;9.20;;;4.70;;
74401;SDS011;62837;51.082;13.744;2023-02-15T09:19:48;8.80;;;4.60;;
74401;SDS011;62837;51.082;13.744;2023-02-15T09:22:18;9.40;;;4.80;;
74401;SDS011;62837;51.082;13.744;2023-02-15T09:24:49;11.60;;;6.00;;
74401;SDS011;62837;51.082;13.744;2023-02-15T09:27:20;7.80;;;4.20;;
74401;SDS011;62837;51.082;13.744;2023-02-15T09:29:50;9.60;;;5.10;;
74401;SDS011;62837;51.082;13.744;2023-02-15T09:32:21;9.60;;;6.40;;
74401;SDS011;62837;51.082;13.744;2023-02-15T09:34:52;8.90;;;5.00;;
74401;SDS011;62837;51.082;13.744;2023-02-15T09:37:23;11.70;;;5.70;;
74401;SDS011;62837;51.082;13.744;2023-02-15T09:39:54;10.30;;;5.40;;
74401;SDS011;62837;51.082;13.744;2023-02-15T09:42:43;7.80;;;3.80;;
74401;SDS011;62837;51.082;13.744;2023-02-15T09:45:31;9.40;;;5.00;;
74401;SDS011;62837;51.082;13.744;2023-02-15T09:57:10;12.20;;;6.80;;
74401;SDS011;62837;51.082;13.744;2023-02-15T09:59:50;9.00;;;4.80;;
74401;SDS011;62837;51.082;13.744;2023-02-15T10:02:30;15.10;;;7.00;;
74401;SDS011;62837;51.082;13.744;2023-02-15T10:05:16;8.70;;;5.20;;
74401;SDS011;62837;51.082;13.744;2023-02-15T10:08:06;14.00;;;7.20;;
74401;SDS011;62837;51.082;13.744;2023-02-15T10:10:46;12.20;;;6.50;;
74401;SDS011;62837;51.082;13.744;2023-02-15T10:13:29;8.30;;;4.80;;
74401;SDS011;62837;51.082;13.744;2023-02-15T10:16:12;11.10;;;5.10;;
74401;SDS011;62837;51.082;13.744;2023-02-15T10:18:55;12.40;;;6.10;;
74401;SDS011;62837;51.082;13.744;2023-02-15T10:21:39;12.20;;;5.40;;
74401;SDS011;62837;51.082;13.744;2023-02-15T10:24:29;10.70;;;5.60;;
74401;SDS011;62837;51.082;13.744;2023-02-15T10:27:23;12.80;;;6.80;;
74401;SDS011;62837;51.082;13.744;2023-02-15T10:29:57;15.80;;;7.90;;
74401;SDS011;62837;51.082;13.744;2023-02-15T10:32:38;11.70;;;6.40;;
74401;SDS011;62837;51.082;13.744;2023-02-15T10:35:24;14.50;;;7.20;;
74401;SDS011;62837;51.082;13.744;2023-02-15T10:38:03;15.70;;;6.90;;
74401;SDS011;62837;51.082;13.744;2023-02-15T10:40:44;14.00;;;6.70;;
74401;SDS011;62837;51.082;13.744;2023-02-15T10:43:31;14.70;;;6.80;;
74401;SDS011;62837;51.082;13.744;2023-02-15T10:46:16;14.60;;;7.80;;
74401;SDS011;62837;51.082;13.744;2023-02-15T10:49:08;11.90;;;6.50;;
74401;SDS011;62837;51.082;13.744;2023-02-15T10:51:55;12.70;;;6.40;;
74401;SDS011;62837;51.082;13.744;2023-02-15T10:54:39;13.60;;;7.30;;
74401;SDS011;62837;51.082;13.744;2023-02-15T10:57:19;12.60;;;6.50;;
74401;SDS011;62837;51.082;13.744;2023-02-15T11:00:02;10.70;;;5.20;;
74401;SDS011;62837;51.082;13.744;2023-02-15T11:02:45;12.00;;;6.00;;
74401;SDS011;62837;51.082;13.744;2023-02-15T11:05:28;11.10;;;5.50;;
74401;SDS011;62837;51.082;13.744;2023-02-15T11:08:09;14.20;;;7.00;;
74401;SDS011;62837;51.082;13.744;2023-02-15T11:10:41;11.40;;;5.80;;
74401;SDS011;62837;51.082;13.744;2023-02-15T11:13:18;11.10;;;5.60;;
74401;SDS011;62837;51.082;13.744;2023-02-15T11:15:53;13.70;;;7.30;;
74401;SDS011;62837;51.082;13.744;2023-02-15T11:18:28;11.40;;;5.70;;
74401;SDS011;62837;51.082;13.744;2023-02-15T11:21:03;11.10;;;5.70;;
74401;SDS011;62837;51.082;13.744;2023-02-15T11:23:40;12.80;;;6.60;;
74401;SDS011;62837;51.082;13.744;2023-02-15T11:26:14;10.00;;;5.80;;
74401;SDS011;62837;51.082;13.744;2023-02-15T11:28:51;10.50;;;5.50;;
74401;SDS011;62837;51.082;13.744;2023-02-15T11:31:32;10.90;;;5.60;;
74401;SDS011;62837;51.082;13.744;2023-02-15T11:34:13;9.20;;;4.40;;
74401;SDS011;62837;51.082;13.744;2023-02-15T11:36:49;15.30;;;6.70;;
74401;SDS011;62837;51.082;13.744;2023-02-15T11:39:23;13.00;;;6.10;;
74401;SDS011;62837;51.082;13.744;2023-02-15T11:41:57;10.40;;;6.10;;
74401;SDS011;62837;51.082;13.744;2023-02-15T11:44:34;11.70;;;5.50;;
74401;SDS011;62837;51.082;13.744;2023-02-15T11:49:39;8.50;;;4.90;;
74401;SDS011;62837;51.082;13.744;2023-02-15T11:52:12;11.30;;;4.60;;
74401;SDS011;62837;51.082;13.744;2023-02-15T11:54:46;11.20;;;5.70;;
74401;SDS011;62837;51.082;13.744;2023-02-15T11:57:23;11.20;;;6.00;;
74401;SDS011;62837;51.082;13.744;2023-02-15T12:00:05;11.40;;;6.10;;
74401;SDS011;62837;51.082;13.744;2023-02-15T12:02:44;11.20;;;5.90;;
74401;SDS011;62837;51.082;13.744;2023-02-15T12:05:20;13.00;;;7.30;;
74401;SDS011;62837;51.082;13.744;2023-02-15T12:07:54;11.10;;;5.90;;
74401;SDS011;62837;51.082;13.744;2023-02-15T12:10:33;13.40;;;6.50;;
74401;SDS011;62837;51.082;13.744;2023-02-15T12:13:10;10.00;;;5.00;;
74401;SDS011;62837;51.082;13.744;2023-02-15T12:15:44;13.60;;;6.60;;
74401;SDS011;62837;51.082;13.744;2023-02-15T12:18:21;11.20;;;6.20;;
74401;SDS011;62837;51.082;13.744;2023-02-15T12:21:07;12.60;;;6.00;;
74401;SDS011;62837;51.082;13.744;2023-02-15T12:23:41;13.20;;;6.90;;
74401;SDS011;62837;51.082;13.744;2023-02-15T12:26:19;9.20;;;4.10;;
74401;SDS011;62837;51.082;13.744;2023-02-15T12:28:55;14.10;;;6.80;;
74401;SDS011;62837;51.082;13.744;2023-02-15T12:31:32;12.90;;;6.80;;
74401;SDS011;62837;51.082;13.744;2023-02-15T12:34:09;8.80;;;5.40;;
74401;SDS011;62837;51.082;13.744;2023-02-15T12:36:47;12.00;;;6.50;;
74401;SDS011;62837;51.082;13.744;2023-02-15T12:39:22;7.70;;;3.90;;
74401;SDS011;62837;51.082;13.744;2023-02-15T12:41:59;11.00;;;6.40;;
74401;SDS011;62837;51.082;13.744;2023-02-15T12:44:32;10.40;;;5.60;;
74401;SDS011;62837;51.082;13.744;2023-02-15T12:47:05;9.70;;;5.10;;
74401;SDS011;62837;51.082;13.744;2023-02-15T12:50:03;12.00;;;6.20;;
74401;SDS011;62837;51.082;13.744;2023-02-15T12:52:45;12.10;;;7.00;;
74401;SDS011;62837;51.082;13.744;2023-02-15T12:55:20;11.40;;;6.20;;
74401;SDS011;62837;51.082;13.744;2023-02-15T12:58:08;8.10;;;4.30;;
74401;SDS011;62837;51.082;13.744;2023-02-15T13:00:46;9.30;;;5.10;;
74401;SDS011;62837;51.082;13.744;2023-02-15T13:03:31;10.40;;;6.00;;
74401;SDS011;62837;51.082;13.744;2023-02-15T13:06:03;10.00;;;5.30;;
74401;SDS011;62837;51.082;13.744;2023-02-15T13:08:37;11.90;;;6.00;;
74401;SDS011;62837;51.082;13.744;2023-02-15T13:11:19;11.60;;;5.90;;
74401;SDS011;62837;51.082;13.744;2023-02-15T13:13:58;11.10;;;6.00;;
74401;SDS011;62837;51.082;13.744;2023-02-15T13:16:31;11.30;;;6.00;;
74401;SDS011;62837;51.082;13.744;2023-02-15T13:19:05;10.90;;;6.20;;
74401;SDS011;62837;51.082;13.744;2023-02-15T13:21:44;13.70;;;6.60;;
74401;SDS011;62837;51.082;13.744;2023-02-15T13:24:18;12.70;;;6.50;;
74401;SDS011;62837;51.082;13.744;2023-02-15T13:26:54;14.70;;;6.80;;
74401;SDS011;62837;51.082;13.744;2023-02-15T13:29:42;12.20;;;6.50;;
74401;SDS011;62837;51.082;13.744;2023-02-15T13:32:19;12.20;;;6.40;;
74401;SDS011;62837;51.082;13.744;2023-02-15T13:34:58;13.10;;;6.80;;
74401;SDS011;62837;51.082;13.744;2023-02-15T13:37:37;12.60;;;6.80;;
74401;SDS011;62837;51.082;13.744;2023-02-15T13:40:24;12.20;;;6.80;;
74401;SDS011;62837;51.082;13.744;2023-02-15T13:43:03;13.20;;;6.30;;
74401;SDS011;62837;51.082;13.744;2023-02-15T13:45:48;11.30;;;5.10;;
74401;SDS011;62837;51.082;13.744;2023-02-15T13:48:34;13.10;;;6.90;;
74401;SDS011;62837;51.082;13.744;2023-02-15T13:51:20;12.60;;;7.30;;
74401;SDS011;62837;51.082;13.744;2023-02-15T13:54:03;14.90;;;7.10;;
74401;SDS011;62837;51.082;13.744;2023-02-15T13:56:48;12.30;;;5.80;;
74401;SDS011;62837;51.082;13.744;2023-02-15T13:59:31;14.50;;;6.50;;
74401;SDS011;62837;51.082;13.744;2023-02-15T14:02:43;12.40;;;5.80;;
74401;SDS011;62837;51.082;13.744;2023-02-15T14:05:29;13.50;;;6.50;;
74401;SDS011;62837;51.082;13.744;2023-02-15T14:08:17;14.60;;;7.40;;
74401;SDS011;62837;51.082;13.744;2023-02-15T14:11:01;17.90;;;7.50;;
74401;SDS011;62837;51.082;13.744;2023-02-15T14:13:50;13.80;;;7.20;;
74401;SDS011;62837;51.082;13.744;2023-02-15T14:16:33;11.40;;;6.20;;
74401;SDS011;62837;51.082;13.744;2023-02-15T14:19:20;12.30;;;6.90;;
74401;SDS011;62837;51.082;13.744;2023-02-15T14:21:59;14.70;;;8.00;;
74401;SDS011;62837;51.082;13.744;2023-02-15T14:24:37;18.30;;;8.80;;
74401;SDS011;62837;51.082;13.744;2023-02-15T14:27:16;17.30;;;8.30;;
74401;SDS011;62837;51.082;13.744;2023-02-15T14:29:56;15.50;;;8.30;;
74401;SDS011;62837;51.082;13.744;2023-02-15T14:35:03;12.60;;;6.40;;
74401;SDS011;62837;51.082;13.744;2023-02-15T14:37:43;15.60;;;7.50;;
74401;SDS011;62837;51.082;13.744;2023-02-15T14:40:23;19.60;;;8.00;;
74401;SDS011;62837;51.082;13.744;2023-02-15T14:43:23;15.50;;;8.50;;
74401;SDS011;62837;51.082;13.744;2023-02-15T14:46:01;13.30;;;6.80;;
74401;SDS011;62837;51.082;13.744;2023-02-15T14:48:38;19.40;;;8.50;;
74401;SDS011;62837;51.082;13.744;2023-02-15T14:57:23;14.70;;;7.80;;
74401;SDS011;62837;51.082;13.744;2023-02-15T15:00:14;17.20;;;8.00;;
74401;SDS011;62837;51.082;13.744;2023-02-15T15:03:02;16.10;;;8.10;;
74401;SDS011;62837;51.082;13.744;2023-02-15T15:05:49;16.80;;;8.60;;
74401;SDS011;62837;51.082;13.744;2023-02-15T15:08:25;19.30;;;8.80;;
74401;SDS011;62837;51.082;13.744;2023-02-15T15:14:15;19.90;;;8.70;;
74401;SDS011;62837;51.082;13.744;2023-02-15T15:17:13;13.60;;;7.00;;
74401;SDS011;62837;51.082;13.744;2023-02-15T15:20:41;18.20;;;8.60;;
74401;SDS011;62837;51.082;13.744;2023-02-15T15:26:21;20.10;;;9.20;;
74401;SDS011;62837;51.082;13.744;2023-02-15T15:29:05;18.00;;;8.80;;
74401;SDS011;62837;51.082;13.744;2023-02-15T15:31:41;20.60;;;9.70;;
74401;SDS011;62837;51.082;13.744;2023-02-15T15:34:21;20.50;;;10.60;;
74401;SDS011;62837;51.082;13.744;2023-02-15T15:37:26;17.00;;;8.80;;
74401;SDS011;62837;51.082;13.744;2023-02-15T15:43:36;21.60;;;9.50;;
74401;SDS011;62837;51.082;13.744;2023-02-15T15:46:30;16.80;;;7.70;;
74401;SDS011;62837;51.082;13.744;2023-02-15T15:49:15;21.00;;;9.10;;
74401;SDS011;62837;51.082;13.744;2023-02-15T15:51:49;19.00;;;8.80;;